createdAt,value
2018-03-15T00:00:10.826Z,100.00
2018-03-15T00:01:09.701Z,106.00
2018-03-15T00:02:09.600Z,84.00
2018-03-15T00:03:09.683Z,100.00
2018-03-15T00:04:11.944Z,99.00
2018-03-15T00:05:09.523Z,107.00
2018-03-15T00:06:09.642Z,95.00
2018-03-15T00:07:09.642Z,91.00
2018-03-15T00:08:09.652Z,96.00
2018-03-15T00:09:09.662Z,108.00
2018-03-15T00:10:09.577Z,90.00
2018-03-15T00:11:09.686Z,94.00
2018-03-15T00:12:09.695Z,92.00
2018-03-15T00:13:09.599Z,92.00
2018-03-15T00:14:09.701Z,89.00
2018-03-15T00:15:11.820Z,112.00
2018-03-15T00:16:09.613Z,99.00
2018-03-15T00:17:09.760Z,89.00
2018-03-15T00:18:09.730Z,113.00
2018-03-15T00:19:09.638Z,106.00
2018-03-15T00:20:09.541Z,87.00
2018-03-15T00:21:09.650Z,96.00
2018-03-15T00:22:09.658Z,94.00
2018-03-15T00:23:09.561Z,102.00
2018-03-15T00:24:09.673Z,95.00
2018-03-15T00:25:09.681Z,89.00
2018-03-15T00:26:09.586Z,102.00
2018-03-15T00:27:09.695Z,99.00
2018-03-15T00:28:09.607Z,86.00
2018-03-15T00:29:09.610Z,99.00
2018-03-15T00:30:09.686Z,99.00
2018-03-15T00:31:10.984Z,101.00
2018-03-15T00:32:09.630Z,102.00
2018-03-15T00:33:09.640Z,96.00
2018-03-15T00:34:09.646Z,102.00
2018-03-15T00:35:09.652Z,93.00
2018-03-15T00:36:09.553Z,73.00
2018-03-15T00:37:09.666Z,90.00
2018-03-15T00:38:09.671Z,99.00
2018-03-15T00:39:09.578Z,104.00
2018-03-15T00:40:09.686Z,96.00
2018-03-15T00:41:09.578Z,107.00
2018-03-15T00:42:09.599Z,101.00
2018-03-15T00:43:09.709Z,97.00
2018-03-15T00:44:09.608Z,105.00
2018-03-15T00:45:09.732Z,98.00
2018-03-15T00:46:09.730Z,86.00
2018-03-15T00:47:09.618Z,90.00
2018-03-15T00:48:09.647Z,114.00
2018-03-15T00:49:09.659Z,122.00
2018-03-15T00:50:09.657Z,123.00
2018-03-15T00:51:09.666Z,114.00
2018-03-15T00:52:09.564Z,118.00
2018-03-15T00:53:09.580Z,97.00
2018-03-15T00:54:09.686Z,120.00
2018-03-15T00:55:09.594Z,136.00
2018-03-15T00:56:09.702Z,115.00
2018-03-15T00:57:09.606Z,99.00
2018-03-15T00:58:12.441Z,127.00
2018-03-15T00:59:09.626Z,136.00
2018-03-15T01:00:10.859Z,100.00
2018-03-15T01:01:09.639Z,98.00
2018-03-15T01:02:09.650Z,109.00
2018-03-15T01:03:09.650Z,96.00
2018-03-15T01:04:09.653Z,135.00
2018-03-15T01:05:09.587Z,135.00
2018-03-15T01:06:09.574Z,135.00
2018-03-15T01:07:09.678Z,135.00
2018-03-15T01:08:09.582Z,0.00
2018-03-15T01:09:09.576Z,135.00
2018-03-15T01:10:09.704Z,0.00
2018-03-15T01:11:09.607Z,89.00
2018-03-15T01:12:09.617Z,135.00
2018-03-15T01:13:09.722Z,135.00
2018-03-15T01:14:09.627Z,135.00
2018-03-15T01:15:09.838Z,135.00
2018-03-15T01:16:09.642Z,135.00
2018-03-15T01:17:09.653Z,135.00
2018-03-15T01:18:09.662Z,135.00
2018-03-15T01:19:09.661Z,135.00
2018-03-15T01:20:09.673Z,135.00
2018-03-15T01:21:09.687Z,135.00
2018-03-15T01:22:09.686Z,135.00
2018-03-15T01:23:09.692Z,135.00
2018-03-15T01:24:09.706Z,135.00
2018-03-15T01:25:09.707Z,135.00
2018-03-15T01:26:09.610Z,136.00
2018-03-15T01:27:09.621Z,135.00
2018-03-15T01:28:09.729Z,135.00
2018-03-15T01:29:09.737Z,89.00
2018-03-15T01:30:09.750Z,0.00
2018-03-15T01:31:09.714Z,0.00
2018-03-15T01:32:09.655Z,0.00
2018-03-15T01:33:09.662Z,112.00
2018-03-15T01:34:09.682Z,81.00
2018-03-15T01:35:09.618Z,49.00
2018-03-15T01:36:09.686Z,84.00
2018-03-15T01:37:09.591Z,135.00
2018-03-15T01:38:09.697Z,0.00
2018-03-15T01:39:09.709Z,89.00
2018-03-15T01:40:09.723Z,135.00
2018-03-15T01:41:09.725Z,135.00
2018-03-15T01:42:09.734Z,129.00
2018-03-15T01:43:09.639Z,113.00
2018-03-15T01:44:09.647Z,135.00
2018-03-15T01:45:09.757Z,45.00
2018-03-15T01:46:09.613Z,54.00
2018-03-15T01:47:09.773Z,108.00
2018-03-15T01:48:09.781Z,135.00
2018-03-15T01:49:09.678Z,135.00
2018-03-15T01:50:09.689Z,135.00
2018-03-15T01:51:09.690Z,73.00
2018-03-15T01:52:09.592Z,70.00
2018-03-15T01:53:09.717Z,79.00
2018-03-15T01:54:09.713Z,120.00
2018-03-15T01:55:09.717Z,117.00
2018-03-15T01:56:09.741Z,131.00
2018-03-15T01:57:09.737Z,135.00
2018-03-15T01:58:09.742Z,135.00
2018-03-15T01:59:09.649Z,121.00
2018-03-15T02:00:10.894Z,135.00
2018-03-15T02:01:09.646Z,135.00
2018-03-15T02:02:09.669Z,135.00
2018-03-15T02:03:10.250Z,131.00
2018-03-15T02:04:09.851Z,133.00
2018-03-15T02:05:09.802Z,137.00
2018-03-15T02:06:09.758Z,137.00
2018-03-15T02:07:09.703Z,155.00
2018-03-15T02:08:09.709Z,135.00
2018-03-15T02:09:09.726Z,135.00
2018-03-15T02:10:09.729Z,135.00
2018-03-15T02:11:09.738Z,146.00
2018-03-15T02:12:09.745Z,136.00
2018-03-15T02:13:09.758Z,127.00
2018-03-15T02:14:09.759Z,135.00
2018-03-15T02:15:09.658Z,135.00
2018-03-15T02:16:09.677Z,139.00
2018-03-15T02:17:09.776Z,138.00
2018-03-15T02:18:09.683Z,133.00
2018-03-15T02:19:09.694Z,130.00
2018-03-15T02:20:09.693Z,135.00
2018-03-15T02:21:09.506Z,135.00
2018-03-15T02:22:09.721Z,144.00
2018-03-15T02:23:09.717Z,153.00
2018-03-15T02:24:09.725Z,140.00
2018-03-15T02:25:09.739Z,139.00
2018-03-15T02:26:09.742Z,152.00
2018-03-15T02:27:09.746Z,150.00
2018-03-15T02:28:09.653Z,137.00
2018-03-15T02:29:09.761Z,147.00
2018-03-15T02:30:09.773Z,135.00
2018-03-15T02:31:09.674Z,138.00
2018-03-15T02:32:09.781Z,135.00
2018-03-15T02:33:09.794Z,96.00
2018-03-15T02:34:09.701Z,111.00
2018-03-15T02:35:09.710Z,81.00
2018-03-15T02:36:09.711Z,114.00
2018-03-15T02:37:09.718Z,108.00
2018-03-15T02:38:09.731Z,112.00
2018-03-15T02:39:09.730Z,135.00
2018-03-15T02:40:09.739Z,73.00
2018-03-15T02:41:09.748Z,58.00
2018-03-15T02:42:09.641Z,89.00
2018-03-15T02:43:09.762Z,0.00
2018-03-15T02:44:09.778Z,0.00
2018-03-15T02:45:09.778Z,0.00
2018-03-15T02:46:09.786Z,43.00
2018-03-15T02:47:09.686Z,45.00
2018-03-15T02:48:09.801Z,0.00
2018-03-15T02:49:09.706Z,0.00
2018-03-15T02:50:09.730Z,0.00
2018-03-15T02:51:09.725Z,135.00
2018-03-15T02:52:09.722Z,94.00
2018-03-15T02:53:09.734Z,97.00
2018-03-15T02:54:09.746Z,101.00
2018-03-15T02:55:09.651Z,95.00
2018-03-15T02:56:09.755Z,96.00
2018-03-15T02:57:09.767Z,104.00
2018-03-15T02:58:09.769Z,97.00
2018-03-15T02:59:09.780Z,92.00
2018-03-15T03:00:10.910Z,104.00
2018-03-15T03:01:09.794Z,110.00
2018-03-15T03:02:09.798Z,48.00
2018-03-15T03:03:09.829Z,180.00
2018-03-15T03:04:09.814Z,112.00
2018-03-15T03:05:09.722Z,101.00
2018-03-15T03:06:09.729Z,105.00
2018-03-15T03:07:09.742Z,105.00
2018-03-15T03:08:09.647Z,91.00
2018-03-15T03:09:09.755Z,102.00
2018-03-15T03:10:09.761Z,101.00
2018-03-15T03:11:09.762Z,112.00
2018-03-15T03:12:09.665Z,135.00
2018-03-15T03:13:09.782Z,180.00
2018-03-15T03:14:09.780Z,137.00
2018-03-15T03:15:09.794Z,89.00
2018-03-15T03:16:09.706Z,0.00
2018-03-15T03:17:09.801Z,124.00
2018-03-15T03:18:09.812Z,111.00
2018-03-15T03:19:09.713Z,0.00
2018-03-15T03:20:09.729Z,0.00
2018-03-15T03:21:09.731Z,124.00
2018-03-15T03:22:09.627Z,135.00
2018-03-15T03:23:09.749Z,135.00
2018-03-15T03:24:09.653Z,135.00
2018-03-15T03:25:09.758Z,0.00
2018-03-15T03:26:09.767Z,0.00
2018-03-15T03:27:09.669Z,135.00
2018-03-15T03:28:09.794Z,0.00
2018-03-15T03:29:09.784Z,0.00
2018-03-15T03:30:09.809Z,0.00
2018-03-15T03:31:09.803Z,0.00
2018-03-15T03:32:09.811Z,0.00
2018-03-15T03:33:09.822Z,0.00
2018-03-15T03:34:09.622Z,0.00
2018-03-15T03:35:09.730Z,0.00
2018-03-15T03:36:11.253Z,0.00
2018-03-15T03:37:09.749Z,0.00
2018-03-15T03:38:09.653Z,89.00
2018-03-15T03:39:09.758Z,89.00
2018-03-15T03:40:09.778Z,89.00
2018-03-15T03:41:09.674Z,0.00
2018-03-15T03:42:09.785Z,0.00
2018-03-15T03:43:09.803Z,0.00
2018-03-15T03:44:09.793Z,0.00
2018-03-15T03:45:09.801Z,0.00
2018-03-15T03:46:09.816Z,0.00
2018-03-15T03:47:09.814Z,0.00
2018-03-15T03:48:09.821Z,0.00
2018-03-15T03:49:09.726Z,47.00
2018-03-15T03:50:09.634Z,120.00
2018-03-15T03:51:09.740Z,0.00
2018-03-15T03:52:09.755Z,0.00
2018-03-15T03:53:09.657Z,0.00
2018-03-15T03:54:09.766Z,0.00
2018-03-15T03:55:12.555Z,0.00
2018-03-15T03:56:09.785Z,0.00
2018-03-15T03:57:09.690Z,337.00
2018-03-15T03:58:09.687Z,270.00
2018-03-15T03:59:09.815Z,0.00
2018-03-15T04:00:10.830Z,0.00
2018-03-15T04:01:09.820Z,180.00
2018-03-15T04:02:09.725Z,0.00
2018-03-15T04:03:09.830Z,308.00
2018-03-15T04:04:09.680Z,270.00
2018-03-15T04:05:09.742Z,45.00
2018-03-15T04:06:09.853Z,312.00
2018-03-15T04:07:09.662Z,322.00
2018-03-15T04:08:09.766Z,353.00
2018-03-15T04:09:09.674Z,66.00
2018-03-15T04:10:09.778Z,225.00
2018-03-15T04:11:09.789Z,0.00
2018-03-15T04:12:09.799Z,325.00
2018-03-15T04:13:09.802Z,124.00
2018-03-15T04:14:09.810Z,0.00
2018-03-15T04:15:09.820Z,0.00
2018-03-15T04:16:09.822Z,0.00
2018-03-15T04:17:09.835Z,0.00
2018-03-15T04:18:09.732Z,0.00
2018-03-15T04:19:09.843Z,0.00
2018-03-15T04:20:09.649Z,0.00
2018-03-15T04:21:09.759Z,0.00
2018-03-15T04:22:09.667Z,0.00
2018-03-15T04:23:09.773Z,0.00
2018-03-15T04:24:09.778Z,0.00
2018-03-15T04:25:09.686Z,0.00
2018-03-15T04:26:09.791Z,0.00
2018-03-15T04:27:09.802Z,180.00
2018-03-15T04:28:09.909Z,0.00
2018-03-15T04:29:09.814Z,180.00
2018-03-15T04:30:09.839Z,180.00
2018-03-15T04:31:09.837Z,180.00
2018-03-15T04:32:09.857Z,180.00
2018-03-15T04:33:09.843Z,0.00
2018-03-15T04:34:09.755Z,0.00
2018-03-15T04:35:09.657Z,0.00
2018-03-15T04:36:09.665Z,180.00
2018-03-15T04:37:09.775Z,0.00
2018-03-15T04:38:09.682Z,0.00
2018-03-15T04:39:09.787Z,0.00
2018-03-15T04:40:09.795Z,0.00
2018-03-15T04:41:09.808Z,0.00
2018-03-15T04:42:09.810Z,0.00
2018-03-15T04:43:09.814Z,0.00
2018-03-15T04:44:09.831Z,0.00
2018-03-15T04:45:09.826Z,0.00
2018-03-15T04:46:09.838Z,0.00
2018-03-15T04:47:09.853Z,0.00
2018-03-15T04:48:09.844Z,0.00
2018-03-15T04:49:09.857Z,0.00
2018-03-15T04:50:09.763Z,135.00
2018-03-15T04:51:09.669Z,127.00
2018-03-15T04:52:09.667Z,123.00
2018-03-15T04:53:09.781Z,107.00
2018-03-15T04:54:09.690Z,116.00
2018-03-15T04:55:09.683Z,89.00
2018-03-15T04:56:09.806Z,135.00
2018-03-15T04:57:09.822Z,105.00
2018-03-15T04:58:09.726Z,89.00
2018-03-15T04:59:11.765Z,89.00
2018-03-15T05:00:10.857Z,92.00
2018-03-15T05:01:09.842Z,96.00
2018-03-15T05:02:09.370Z,90.00
2018-03-15T05:03:09.862Z,105.00
2018-03-15T05:04:09.870Z,96.00
2018-03-15T05:05:11.609Z,102.00
2018-03-15T05:06:09.778Z,102.00
2018-03-15T05:07:09.682Z,96.00
2018-03-15T05:08:09.790Z,85.00
2018-03-15T05:09:09.798Z,92.00
2018-03-15T05:10:09.702Z,91.00
2018-03-15T05:11:09.810Z,99.00
2018-03-15T05:12:09.822Z,107.00
2018-03-15T05:13:09.831Z,94.00
2018-03-15T05:14:09.833Z,102.00
2018-03-15T05:15:09.843Z,100.00
2018-03-15T05:16:09.858Z,96.00
2018-03-15T05:17:09.861Z,98.00
2018-03-15T05:18:09.867Z,94.00
2018-03-15T05:19:09.879Z,94.00
2018-03-15T05:20:09.674Z,85.00
2018-03-15T05:21:09.692Z,114.00
2018-03-15T05:22:09.670Z,106.00
2018-03-15T05:23:09.693Z,0.00
2018-03-15T05:24:09.807Z,112.00
2018-03-15T05:25:09.845Z,0.00
2018-03-15T05:26:09.721Z,135.00
2018-03-15T05:27:09.826Z,95.00
2018-03-15T05:28:09.834Z,108.00
2018-03-15T05:29:09.729Z,111.00
2018-03-15T05:30:09.751Z,120.00
2018-03-15T05:31:09.879Z,103.00
2018-03-15T05:32:09.870Z,105.00
2018-03-15T05:33:09.875Z,120.00
2018-03-15T05:34:09.881Z,105.00
2018-03-15T05:35:09.889Z,104.00
2018-03-15T05:36:09.889Z,113.00
2018-03-15T05:37:09.702Z,106.00
2018-03-15T05:38:09.802Z,96.00
2018-03-15T05:39:09.707Z,97.00
2018-03-15T05:40:09.722Z,95.00
2018-03-15T05:41:09.825Z,97.00
2018-03-15T05:42:09.730Z,116.00
2018-03-15T05:43:09.842Z,103.00
2018-03-15T05:44:09.850Z,89.00
2018-03-15T05:45:09.863Z,107.00
2018-03-15T05:46:09.862Z,101.00
2018-03-15T05:47:09.866Z,93.00
2018-03-15T05:48:09.884Z,100.00
2018-03-15T05:49:09.898Z,95.00
2018-03-15T05:50:09.691Z,71.00
2018-03-15T05:51:09.793Z,119.00
2018-03-15T05:52:09.706Z,104.00
2018-03-15T05:53:09.714Z,82.00
2018-03-15T05:54:09.818Z,101.00
2018-03-15T05:55:09.722Z,89.00
2018-03-15T05:56:09.733Z,149.00
2018-03-15T05:57:09.841Z,112.00
2018-03-15T05:58:09.745Z,89.00
2018-03-15T05:59:09.859Z,89.00
2018-03-15T06:00:10.896Z,0.00
2018-03-15T06:01:09.913Z,0.00
2018-03-15T06:02:09.877Z,135.00
2018-03-15T06:03:09.890Z,0.00
2018-03-15T06:04:09.898Z,0.00
2018-03-15T06:05:09.697Z,0.00
2018-03-15T06:06:09.704Z,102.00
2018-03-15T06:07:09.705Z,66.00
2018-03-15T06:08:09.713Z,112.00
2018-03-15T06:09:09.729Z,0.00
2018-03-15T06:10:09.831Z,0.00
2018-03-15T06:11:09.733Z,0.00
2018-03-15T06:12:09.845Z,0.00
2018-03-15T06:13:09.854Z,0.00
2018-03-15T06:14:09.753Z,0.00
2018-03-15T06:15:09.870Z,89.00
2018-03-15T06:16:09.773Z,93.00
2018-03-15T06:17:09.885Z,135.00
2018-03-15T06:18:09.793Z,112.00
2018-03-15T06:19:09.898Z,95.00
2018-03-15T06:20:09.806Z,89.00
2018-03-15T06:21:09.706Z,177.00
2018-03-15T06:22:09.718Z,89.00
2018-03-15T06:23:09.826Z,107.00
2018-03-15T06:24:09.764Z,135.00
2018-03-15T06:25:09.707Z,0.00
2018-03-15T06:26:09.845Z,0.00
2018-03-15T06:27:09.750Z,0.00
2018-03-15T06:28:09.963Z,0.00
2018-03-15T06:29:09.775Z,0.00
2018-03-15T06:30:09.770Z,0.00
2018-03-15T06:31:09.879Z,0.00
2018-03-15T06:32:09.890Z,0.00
2018-03-15T06:33:09.907Z,135.00
2018-03-15T06:34:09.901Z,89.00
2018-03-15T06:35:09.910Z,98.00
2018-03-15T06:36:09.926Z,89.00
2018-03-15T06:37:09.718Z,84.00
2018-03-15T06:38:09.733Z,60.00
2018-03-15T06:39:09.733Z,135.00
2018-03-15T06:40:09.742Z,135.00
2018-03-15T06:41:09.754Z,202.00
2018-03-15T06:42:09.754Z,39.00
2018-03-15T06:43:09.763Z,194.00
2018-03-15T06:44:09.775Z,0.00
2018-03-15T06:45:09.878Z,11.00
2018-03-15T06:46:09.782Z,75.00
2018-03-15T06:47:09.894Z,98.00
2018-03-15T06:48:09.802Z,90.00
2018-03-15T06:49:09.917Z,90.00
2018-03-15T06:50:09.918Z,95.00
2018-03-15T06:51:09.922Z,109.00
2018-03-15T06:52:09.783Z,91.00
2018-03-15T06:53:09.730Z,102.00
2018-03-15T06:54:09.750Z,100.00
2018-03-15T06:55:09.757Z,96.00
2018-03-15T06:56:09.753Z,90.00
2018-03-15T06:57:09.770Z,84.00
2018-03-15T06:58:09.871Z,70.00
2018-03-15T06:59:09.779Z,91.00
2018-03-15T07:00:10.910Z,86.00
2018-03-15T07:01:09.802Z,75.00
2018-03-15T07:02:09.798Z,54.00
2018-03-15T07:03:09.909Z,89.00
2018-03-15T07:04:09.913Z,89.00
2018-03-15T07:05:09.930Z,72.00
2018-03-15T07:06:09.930Z,65.00
2018-03-15T07:07:09.940Z,96.00
2018-03-15T07:08:09.739Z,42.00
2018-03-15T07:09:09.950Z,44.00
2018-03-15T07:10:09.853Z,70.00
2018-03-15T07:11:09.761Z,60.00
2018-03-15T07:12:09.764Z,101.00
2018-03-15T07:13:09.782Z,48.00
2018-03-15T07:14:09.890Z,91.00
2018-03-15T07:15:09.790Z,89.00
2018-03-15T07:16:09.801Z,89.00
2018-03-15T07:17:09.909Z,93.00
2018-03-15T07:18:09.814Z,84.00
2018-03-15T07:19:09.922Z,73.00
2018-03-15T07:20:09.946Z,68.00
2018-03-15T07:21:09.942Z,131.00
2018-03-15T07:22:09.943Z,120.00
2018-03-15T07:23:09.953Z,127.00
2018-03-15T07:24:09.755Z,113.00
2018-03-15T07:25:09.967Z,92.00
2018-03-15T07:26:09.772Z,89.00
2018-03-15T07:27:09.778Z,99.00
2018-03-15T07:28:09.785Z,117.00
2018-03-15T07:29:09.998Z,112.00
2018-03-15T07:30:09.903Z,97.00
2018-03-15T07:31:09.811Z,114.00
2018-03-15T07:32:09.920Z,110.00
2018-03-15T07:33:09.927Z,124.00
2018-03-15T07:34:09.833Z,101.00
2018-03-15T07:35:09.938Z,105.00
2018-03-15T07:36:09.942Z,91.00
2018-03-15T07:37:09.959Z,92.00
2018-03-15T07:38:09.958Z,89.00
2018-03-15T07:39:09.961Z,107.00
2018-03-15T07:40:09.770Z,94.00
2018-03-15T07:41:09.738Z,116.00
2018-03-15T07:42:09.793Z,134.00
2018-03-15T07:43:09.785Z,127.00
2018-03-15T07:44:09.906Z,137.00
2018-03-15T07:45:09.820Z,112.00
2018-03-15T07:46:09.810Z,102.00
2018-03-15T07:47:09.818Z,87.00
2018-03-15T07:48:09.829Z,88.00
2018-03-15T07:49:09.951Z,93.00
2018-03-15T07:50:10.054Z,98.00
2018-03-15T07:51:09.853Z,105.00
2018-03-15T07:52:09.976Z,100.00
2018-03-15T07:53:09.968Z,126.00
2018-03-15T07:54:09.969Z,125.00
2018-03-15T07:55:10.893Z,132.00
2018-03-15T07:56:09.783Z,90.00
2018-03-15T07:57:09.786Z,104.00
2018-03-15T07:58:09.802Z,109.00
2018-03-15T07:59:09.801Z,120.00
2018-03-15T08:00:11.146Z,103.00
2018-03-15T08:01:09.822Z,115.00
2018-03-15T08:02:09.858Z,102.00
2018-03-15T08:03:09.829Z,127.00
2018-03-15T08:04:09.845Z,91.00
2018-03-15T08:05:09.951Z,93.00
2018-03-15T08:06:09.825Z,122.00
2018-03-15T08:07:09.842Z,90.00
2018-03-15T08:08:11.393Z,118.00
2018-03-15T08:09:09.983Z,88.00
2018-03-15T08:10:09.890Z,77.00
2018-03-15T08:11:09.990Z,101.00
2018-03-15T08:12:09.793Z,89.00
2018-03-15T08:13:09.797Z,98.00
2018-03-15T08:14:09.813Z,87.00
2018-03-15T08:15:09.819Z,97.00
2018-03-15T08:16:09.822Z,90.00
2018-03-15T08:17:09.838Z,131.00
2018-03-15T08:18:09.941Z,120.00
2018-03-15T08:19:09.845Z,91.00
2018-03-15T08:20:09.825Z,104.00
2018-03-15T08:21:09.961Z,115.00
2018-03-15T08:22:09.857Z,88.00
2018-03-15T08:23:09.781Z,135.00
2018-03-15T08:24:09.987Z,96.00
2018-03-15T08:25:09.998Z,89.00
2018-03-15T08:26:09.998Z,108.00
2018-03-15T08:27:10.003Z,117.00
2018-03-15T08:28:09.809Z,136.00
2018-03-15T08:29:09.814Z,135.00
2018-03-15T08:30:09.829Z,167.00
2018-03-15T08:31:09.817Z,163.00
2018-03-15T08:32:09.838Z,135.00
2018-03-15T08:33:09.858Z,170.00
2018-03-15T08:34:09.958Z,180.00
2018-03-15T08:35:09.856Z,180.00
2018-03-15T08:36:12.425Z,180.00
2018-03-15T08:37:09.974Z,169.00
2018-03-15T08:38:09.485Z,157.00
2018-03-15T08:39:09.994Z,0.00
2018-03-15T08:40:10.000Z,180.00
2018-03-15T08:41:10.010Z,0.00
2018-03-15T08:42:10.015Z,0.00
2018-03-15T08:43:10.018Z,180.00
2018-03-15T08:44:09.822Z,0.00
2018-03-15T08:45:09.835Z,325.00
2018-03-15T08:46:09.842Z,335.00
2018-03-15T08:47:09.945Z,188.00
2018-03-15T08:48:09.850Z,163.00
2018-03-15T08:49:09.863Z,137.00
2018-03-15T08:50:09.970Z,135.00
2018-03-15T08:51:09.869Z,135.00
2018-03-15T08:52:09.891Z,135.00
2018-03-15T08:53:09.897Z,135.00
2018-03-15T08:54:09.882Z,137.00
2018-03-15T08:55:09.911Z,135.00
2018-03-15T08:56:09.914Z,165.00
2018-03-15T08:57:09.923Z,137.00
2018-03-15T08:58:09.938Z,104.00
2018-03-15T08:59:12.565Z,89.00
2018-03-15T09:00:11.197Z,100.00
2018-03-15T09:01:09.843Z,135.00
2018-03-15T09:02:09.878Z,177.00
2018-03-15T09:03:09.963Z,155.00
2018-03-15T09:04:09.866Z,147.00
2018-03-15T09:05:09.951Z,133.00
2018-03-15T09:06:09.986Z,129.00
2018-03-15T09:07:09.984Z,138.00
2018-03-15T09:08:09.901Z,136.00
2018-03-15T09:09:10.033Z,121.00
2018-03-15T09:10:10.018Z,126.00
2018-03-15T09:11:10.018Z,145.00
2018-03-15T09:12:10.022Z,137.00
2018-03-15T09:13:10.036Z,130.00
2018-03-15T09:14:10.042Z,153.00
2018-03-15T09:15:10.047Z,177.00
2018-03-15T09:16:09.849Z,159.00
2018-03-15T09:17:09.857Z,129.00
2018-03-15T09:18:09.869Z,132.00
2018-03-15T09:19:09.869Z,177.00
2018-03-15T09:20:09.878Z,170.00
2018-03-15T09:21:09.895Z,136.00
2018-03-15T09:22:09.995Z,112.00
2018-03-15T09:23:09.922Z,126.00
2018-03-15T09:24:10.010Z,162.00
2018-03-15T09:25:10.018Z,135.00
2018-03-15T09:26:09.935Z,132.00
2018-03-15T09:27:11.080Z,137.00
2018-03-15T09:28:09.987Z,173.00
2018-03-15T09:29:10.048Z,140.00
2018-03-15T09:30:10.054Z,135.00
2018-03-15T09:31:10.058Z,124.00
2018-03-15T09:32:09.865Z,134.00
2018-03-15T09:33:09.869Z,135.00
2018-03-15T09:34:09.882Z,131.00
2018-03-15T09:35:09.886Z,109.00
2018-03-15T09:36:09.889Z,134.00
2018-03-15T09:37:09.902Z,123.00
2018-03-15T09:38:10.006Z,128.00
2018-03-15T09:39:09.913Z,131.00
2018-03-15T09:40:09.924Z,86.00
2018-03-15T09:41:10.025Z,114.00
2018-03-15T09:42:10.043Z,128.00
2018-03-15T09:43:10.048Z,91.00
2018-03-15T09:44:12.855Z,129.00
2018-03-15T09:45:10.065Z,127.00
2018-03-15T09:46:10.147Z,133.00
2018-03-15T09:47:10.078Z,49.00
2018-03-15T09:48:09.874Z,103.00
2018-03-15T09:49:09.882Z,89.00
2018-03-15T09:50:09.499Z,101.00
2018-03-15T09:51:10.029Z,99.00
2018-03-15T09:52:09.911Z,102.00
2018-03-15T09:53:09.918Z,97.00
2018-03-15T09:54:10.029Z,94.00
2018-03-15T09:55:09.924Z,18.00
2018-03-15T09:56:09.909Z,83.00
2018-03-15T09:57:09.946Z,106.00
2018-03-15T09:58:09.957Z,89.00
2018-03-15T09:59:09.970Z,72.00
2018-03-15T10:00:11.191Z,61.00
2018-03-15T10:01:10.078Z,57.00
2018-03-15T10:02:10.076Z,95.00
2018-03-15T10:03:10.086Z,102.00
2018-03-15T10:04:09.889Z,90.00
2018-03-15T10:05:09.898Z,105.00
2018-03-15T10:06:09.909Z,89.00
2018-03-15T10:07:09.911Z,159.00
2018-03-15T10:08:09.920Z,145.00
2018-03-15T10:09:09.933Z,144.00
2018-03-15T10:10:10.039Z,134.00
2018-03-15T10:11:09.940Z,128.00
2018-03-15T10:12:09.952Z,109.00
2018-03-15T10:13:10.072Z,113.00
2018-03-15T10:14:10.070Z,101.00
2018-03-15T10:15:09.980Z,104.00
2018-03-15T10:16:10.079Z,173.00
2018-03-15T10:17:10.093Z,180.00
2018-03-15T10:18:10.098Z,180.00
2018-03-15T10:19:10.098Z,103.00
2018-03-15T10:20:09.906Z,102.00
2018-03-15T10:21:09.914Z,119.00
2018-03-15T10:22:09.953Z,87.00
2018-03-15T10:23:09.930Z,101.00
2018-03-15T10:24:10.062Z,108.00
2018-03-15T10:25:13.769Z,96.00
2018-03-15T10:26:10.056Z,89.00
2018-03-15T10:27:09.960Z,91.00
2018-03-15T10:28:09.955Z,136.00
2018-03-15T10:29:09.977Z,78.00
2018-03-15T10:30:10.081Z,97.00
2018-03-15T10:31:10.095Z,136.00
2018-03-15T10:32:10.103Z,150.00
2018-03-15T10:33:10.110Z,140.00
2018-03-15T10:34:10.106Z,137.00
2018-03-15T10:35:10.113Z,150.00
2018-03-15T10:36:09.918Z,160.00
2018-03-15T10:37:10.038Z,89.00
2018-03-15T10:38:09.946Z,92.00
2018-03-15T10:39:09.939Z,120.00
2018-03-15T10:40:09.946Z,135.00
2018-03-15T10:41:09.962Z,0.00
2018-03-15T10:42:09.959Z,180.00
2018-03-15T10:43:09.970Z,0.00
2018-03-15T10:44:09.981Z,0.00
2018-03-15T10:45:10.086Z,97.00
2018-03-15T10:46:09.994Z,91.00
2018-03-15T10:47:10.102Z,130.00
2018-03-15T10:48:10.115Z,132.00
2018-03-15T10:49:10.126Z,89.00
2018-03-15T10:50:10.123Z,137.00
2018-03-15T10:51:10.018Z,143.00
2018-03-15T10:52:09.934Z,140.00
2018-03-15T10:53:09.942Z,148.00
2018-03-15T10:54:09.948Z,137.00
2018-03-15T10:55:09.955Z,158.00
2018-03-15T10:56:09.929Z,101.00
2018-03-15T10:57:09.973Z,81.00
2018-03-15T10:58:10.073Z,47.00
2018-03-15T10:59:09.981Z,133.00
2018-03-15T11:00:11.113Z,132.00
2018-03-15T11:01:10.100Z,135.00
2018-03-15T11:02:10.115Z,175.00
2018-03-15T11:03:10.115Z,128.00
2018-03-15T11:04:12.886Z,134.00
2018-03-15T11:05:10.133Z,141.00
2018-03-15T11:06:10.137Z,105.00
2018-03-15T11:07:10.143Z,75.00
2018-03-15T11:08:09.945Z,135.00
2018-03-15T11:09:09.949Z,138.00
2018-03-15T11:10:09.964Z,121.00
2018-03-15T11:11:09.969Z,146.00
2018-03-15T11:12:10.030Z,135.00
2018-03-15T11:13:09.989Z,116.00
2018-03-15T11:14:09.985Z,144.00
2018-03-15T11:15:09.993Z,174.00
2018-03-15T11:16:10.105Z,179.00
2018-03-15T11:17:10.112Z,227.00
2018-03-15T11:18:10.073Z,135.00
2018-03-15T11:19:10.126Z,148.00
2018-03-15T11:20:10.035Z,149.00
2018-03-15T11:21:10.043Z,291.00
2018-03-15T11:22:10.048Z,164.00
2018-03-15T11:23:10.046Z,176.00
2018-03-15T11:24:09.958Z,184.00
2018-03-15T11:25:09.966Z,103.00
2018-03-15T11:26:09.978Z,141.00
2018-03-15T11:27:09.836Z,95.00
2018-03-15T11:28:09.962Z,95.00
2018-03-15T11:29:10.003Z,135.00
2018-03-15T11:30:10.008Z,40.00
2018-03-15T11:31:10.014Z,55.00
2018-03-15T11:32:12.954Z,120.00
2018-03-15T11:33:10.126Z,143.00
2018-03-15T11:34:10.137Z,108.00
2018-03-15T11:35:09.938Z,122.00
2018-03-15T11:36:11.133Z,111.00
2018-03-15T11:37:10.161Z,94.00
2018-03-15T11:38:10.166Z,75.00
2018-03-15T11:39:10.170Z,267.00
2018-03-15T11:40:09.975Z,207.00
2018-03-15T11:41:09.982Z,170.00
2018-03-15T11:42:09.996Z,153.00
2018-03-15T11:43:10.099Z,138.00
2018-03-15T11:44:10.002Z,145.00
2018-03-15T11:45:10.024Z,135.00
2018-03-15T11:46:10.126Z,136.00
2018-03-15T11:47:10.026Z,135.00
2018-03-15T11:48:10.137Z,145.00
2018-03-15T11:49:10.147Z,180.00
2018-03-15T11:50:10.045Z,146.00
2018-03-15T11:51:10.065Z,154.00
2018-03-15T11:52:10.677Z,140.00
2018-03-15T11:53:10.178Z,106.00
2018-03-15T11:54:10.087Z,139.00
2018-03-15T11:55:10.186Z,172.00
2018-03-15T11:56:09.988Z,150.00
2018-03-15T11:57:09.996Z,167.00
2018-03-15T11:58:10.011Z,169.00
2018-03-15T11:59:10.005Z,180.00
2018-03-15T12:00:11.350Z,193.00
2018-03-15T12:01:10.029Z,320.00
2018-03-15T12:02:10.135Z,317.00
2018-03-15T12:03:10.151Z,183.00
2018-03-15T12:04:10.146Z,263.00
2018-03-15T12:05:10.153Z,308.00
2018-03-15T12:06:10.166Z,308.00
2018-03-15T12:07:10.168Z,184.00
2018-03-15T12:08:10.173Z,218.00
2018-03-15T12:09:10.190Z,235.00
2018-03-15T12:10:10.192Z,183.00
2018-03-15T12:11:10.198Z,336.00
2018-03-15T12:12:09.998Z,298.00
2018-03-15T12:13:10.006Z,215.00
2018-03-15T12:14:10.016Z,168.00
2018-03-15T12:15:10.026Z,189.00
2018-03-15T12:16:10.031Z,315.00
2018-03-15T12:17:10.042Z,292.00
2018-03-15T12:18:10.145Z,264.00
2018-03-15T12:19:10.051Z,171.00
2018-03-15T12:20:10.070Z,176.00
2018-03-15T12:21:10.171Z,177.00
2018-03-15T12:22:12.735Z,180.00
2018-03-15T12:23:10.090Z,198.00
2018-03-15T12:24:10.100Z,335.00
2018-03-15T12:25:10.206Z,327.00
2018-03-15T12:26:10.202Z,334.00
2018-03-15T12:27:10.015Z,272.00
2018-03-15T12:28:10.015Z,210.00
2018-03-15T12:29:10.021Z,174.00
2018-03-15T12:30:10.033Z,189.00
2018-03-15T12:31:10.039Z,283.00
2018-03-15T12:32:10.046Z,191.00
2018-03-15T12:33:10.057Z,191.00
2018-03-15T12:34:10.161Z,182.00
2018-03-15T12:35:10.065Z,207.00
2018-03-15T12:36:10.175Z,184.00
2018-03-15T12:37:10.182Z,332.00
2018-03-15T12:38:10.085Z,309.00
2018-03-15T12:39:10.198Z,339.00
2018-03-15T12:40:10.206Z,333.00
2018-03-15T12:41:10.219Z,338.00